Latest Weather Observations for Thargomindah

IDQ60801

Issued at 12:32 pm EST Friday 4 December 2020 (issued every 10 minutes, with the page automatically refreshed every 10 minutes)

About weather observations | Map of weather stations | Latest weather observations for QLD | Other Formats
Station Details ID: 045025 Name: THARGOMINDAH AIRPORT Lat: -27.99 Lon: 143.81 Height: 130.89 m
Data from the previous 72 hours. | See also: Recent months at Thargomindah
Date/Time
EST
Temp
°C
App
Temp
°C
Dew
Point
°C
Rel
Hum
%
Delta-T
°C
Wind Press
QNH
hPa
Press
MSL
hPa
Rain since
9am
mm
Dir  Spd
km/h
Gust
km/h
Spd
kts
Gust
kts
04/12:30pm 39.0 38.4 13.4 22 15.9 SE 9 17 5 9 1011.2 1010.3 0.0
04/12:00pm 39.4 38.5 13.7 21 16.0 WSW 11 22 6 12 1012.0 1011.1 0.0
04/11:30am 38.1 37.7 14.0 24 15.0 E 9 15 5 8 1012.5 1011.6 0.0
04/11:00am 36.6 35.8 14.0 26 14.0 NW 11 20 6 11 1013.1 1012.2 0.0
04/10:30am 36.7 35.3 13.5 25 14.3 NW 13 26 7 14 1013.5 1012.6 0.0
04/10:00am 35.5 34.9 13.6 26 13.5 NNW 9 17 5 9 1013.9 1013.0 0.0
04/09:30am 35.3 34.7 13.5 27 13.4 W 9 15 5 8 1014.0 1013.1 0.0
04/09:00am 34.5 34.4 13.9 29 12.7 S 7 13 4 7 1014.0 1013.1 0.0
04/08:30am 33.2 32.7 13.8 31 11.9 ESE 9 11 5 6 1014.0 1013.1 0.0
04/08:00am 31.6 30.9 11.9 30 11.6 SSE 7 9 4 5 1013.7 1012.8 0.0
04/07:30am 30.6 29.6 11.1 30 11.3 SE 7 11 4 6 1013.8 1012.9 0.0
04/07:00am 30.0 28.1 10.5 30 11.2 SSE 11 13 6 7 1013.6 1012.7 0.0
04/06:30am 29.4 28.2 11.5 33 10.4 SSE 9 11 5 6 1013.6 1012.7 0.0
04/06:00am 29.4 28.7 13.2 37 9.7 SSE 9 11 5 6 1013.4 1012.5 0.0
04/05:30am 29.3 31.1 15.4 42 8.6 CALM 0 0 0 0 1012.8 1011.9 0.0
04/05:00am 29.7 31.5 15.4 42 8.8 CALM 0 0 0 0 1012.4 1011.5 0.0
04/04:30am 29.8 31.6 15.5 42 8.8 CALM 0 0 0 0 1012.4 1011.5 0.0
04/04:00am 30.0 30.7 15.7 42 8.9 NNE 6 7 3 4 1012.0 1011.1 0.0
04/03:30am 30.8 31.1 16.0 40 9.3 NE 9 11 5 6 1011.9 1011.0 0.0
04/03:00am 31.2 31.6 16.4 41 9.3 NE 9 11 5 6 1011.8 1010.9 0.0
04/02:30am 31.9 31.5 16.2 38 9.9 NE 13 20 7 11 1011.8 1010.9 0.0
04/02:00am 32.6 30.7 15.1 34 10.9 NNE 19 24 10 13 1011.6 1010.7 0.0
04/01:30am 32.7 31.3 12.3 28 12.2 E 11 13 6 7 1011.9 1011.0 0.0
04/01:00am 33.2 30.9 10.5 25 13.2 ESE 13 20 7 11 1011.9 1011.0 0.0
04/12:30am 33.4 30.6 10.1 24 13.5 SE 15 20 8 11 1012.4 1011.5 0.0
04/12:00am 33.6 31.1 9.6 23 13.8 SE 13 20 7 11 1012.6 1011.7 0.0
 
Date/Time
EST
Temp
°C
App
Temp
°C
Dew
Point
°C
Rel
Hum
%
Delta-T
°C
Wind Press
QNH
hPa
Press
MSL
hPa
Rain since
9am
mm
Dir  Spd
km/h
Gust
km/h
Spd
kts
Gust
kts
03/11:30pm 33.9 30.5 9.2 22 14.1 SE 17 20 9 11 1013.2 1012.3 0.0
03/11:00pm 34.1 30.4 8.0 20 14.6 SE 17 22 9 12 1013.6 1012.7 0.0
03/10:30pm 34.2 30.7 7.3 19 14.9 SE 15 20 8 11 1013.6 1012.7 0.0
03/10:00pm 34.3 31.0 6.6 18 15.2 SSE 13 19 7 10 1013.3 1012.4 0.0
03/09:30pm 35.0 31.1 5.4 16 16.0 SSE 15 20 8 11 1013.2 1012.3 0.0
03/09:00pm 35.5 30.9 5.8 16 16.2 SE 19 28 10 15 1012.7 1011.8 0.0
03/08:30pm 35.9 31.2 6.2 16 16.4 SE 20 28 11 15 1012.2 1011.3 0.0
03/08:00pm 36.3 31.7 6.5 16 16.5 SSE 20 32 11 17 1012.1 1011.2 0.0
03/07:30pm 37.0 31.4 7.0 16 16.8 SSE 26 35 14 19 1011.9 1011.0 0.0
03/07:00pm 37.6 32.1 7.5 16 17.1 SSE 26 35 14 19 1011.5 1010.6 0.0
03/06:30pm 38.5 33.3 7.3 15 17.7 SE 24 33 13 18 1011.0 1010.1 0.0
03/06:00pm 39.4 33.8 7.0 14 18.4 SE 26 41 14 22 1010.4 1009.4 0.0
03/05:30pm 40.3 35.0 6.6 13 19.1 SE 24 35 13 19 1010.2 1009.2 0.0
03/05:00pm 40.8 36.0 5.8 12 19.6 SE 20 30 11 16 1010.3 1009.3 0.0
03/04:30pm 41.4 36.0 6.3 12 19.9 SSE 24 43 13 23 1010.5 1009.5 0.0
03/04:00pm 40.9 35.1 4.6 11 20.0 SSE 24 35 13 19 1010.5 1009.5 0.0
03/03:30pm 40.9 35.1 4.6 11 20.0 SSE 24 35 13 19 1010.8 1009.8 0.0
03/03:00pm 41.4 36.1 5.0 11 20.2 S 22 35 12 19 1011.2 1010.3 0.0
03/02:30pm 40.1 35.9 4.0 11 19.6 SE 15 26 8 14 1011.7 1010.8 0.0
03/02:00pm 39.9 36.1 3.9 11 19.5 SSE 13 22 7 12 1012.0 1011.1 0.0
03/01:30pm 39.1 35.2 3.3 11 19.2 ESE 13 20 7 11 1012.4 1011.5 0.0
03/01:00pm 38.4 34.0 2.8 11 18.9 SSE 15 20 8 11 1012.8 1011.9 0.0
03/12:30pm 37.0 32.4 1.7 11 18.2 ESE 15 24 8 13 1013.0 1012.1 0.0
03/12:00pm 36.1 31.2 2.2 12 17.6 SE 17 28 9 15 1013.5 1012.6 0.0
03/11:30am 34.5 28.9 1.0 12 16.9 SE 20 26 11 14 1013.9 1013.0 0.0
03/11:00am 33.8 28.3 0.5 12 16.5 SE 19 26 10 14 1014.3 1013.4 0.0
03/10:30am 32.4 27.1 -0.6 12 15.9 SSE 17 24 9 13 1014.8 1013.9 0.0
03/10:00am 31.0 25.2 -1.7 12 15.4 SE 19 26 10 14 1015.0 1014.1 0.0
03/09:30am 30.6 24.7 -2.0 12 15.2 SE 19 26 10 14 1015.0 1014.1 0.0
03/09:00am 29.1 23.1 -3.2 12 14.6 SE 19 26 10 14 1015.2 1014.3 0.2
03/08:30am 28.3 21.4 -2.7 13 14.0 ESE 24 32 13 17 1014.9 1014.0 0.0
03/08:00am 27.8 21.8 -3.1 13 13.8 SE 19 26 10 14 1014.8 1013.9 0.0
03/07:30am 27.0 21.3 -3.7 13 13.5 SSE 17 26 9 14 1015.0 1014.1 0.0
03/07:08am 26.4 20.3 -2.3 15 12.9 S 20 37 11 20 1014.5 1013.6 0.0
03/07:00am 26.0 20.6 -1.7 16 12.5 SSW 17 28 9 15 1015.8 1014.9 0.0
03/06:30am 26.3 19.7 -3.3 14 13.0 SSE 22 30 12 16 1014.6 1013.7 0.0
03/06:00am 25.7 20.3 -1.2 17 12.2 SSE 17 28 9 15 1014.9 1014.0 0.0
03/05:30am 24.5 20.3 5.8 30 9.6 SSE 17 20 9 11 1014.4 1013.5 0.0
03/05:00am 26.6 22.9 -3.1 14 13.1 SSW 7 13 4 7 1015.6 1014.7 0.0
03/04:30am 27.1 22.4 -4.7 12 13.7 SSE 11 20 6 11 1014.8 1013.9 0.0
03/04:00am 27.7 22.8 -6.6 10 14.4 SE 11 17 6 9 1014.3 1013.4 0.0
03/03:30am 28.0 22.4 -6.4 10 14.5 SE 15 20 8 11 1013.9 1013.0 0.0
03/03:00am 28.0 22.0 -6.4 10 14.5 SE 17 24 9 13 1013.5 1012.6 0.0
03/02:30am 28.1 22.1 -6.3 10 14.6 SSE 17 26 9 14 1013.2 1012.3 0.0
03/02:00am 28.2 21.9 -6.3 10 14.6 SE 19 26 10 14 1013.3 1012.4 0.0
03/01:30am 28.4 21.9 -6.1 10 14.7 SE 20 32 11 17 1013.6 1012.7 0.0
03/01:00am 28.6 21.8 -4.7 11 14.6 SSE 22 35 12 19 1013.9 1013.0 0.0
03/12:30am 29.0 21.5 -4.4 11 14.7 SSE 26 39 14 21 1014.1 1013.2 0.0
03/12:00am 29.4 21.9 -4.1 11 14.9 SSE 26 35 14 19 1014.4 1013.5 0.0
 
Date/Time
EST
Temp
°C
App
Temp
°C
Dew
Point
°C
Rel
Hum
%
Delta-T
°C
Wind Press
QNH
hPa
Press
MSL
hPa
Rain since
9am
mm
Dir  Spd
km/h
Gust
km/h
Spd
kts
Gust
kts
02/11:30pm 29.9 23.4 -2.6 12 14.9 SSE 22 32 12 17 1014.7 1013.8 0.0
02/11:00pm 30.8 23.2 -1.9 12 15.3 SSE 28 39 15 21 1014.9 1014.0 0.0
02/10:30pm 32.0 25.6 1.2 14 15.3 SSE 24 32 13 17 1014.8 1013.9 0.0
02/10:00pm 32.6 25.6 1.7 14 15.5 SSE 28 41 15 22 1014.6 1013.7 0.0
02/09:30pm 33.0 26.4 2.0 14 15.7 SSE 26 33 14 18 1014.5 1013.6 0.0
02/09:00pm 33.5 27.3 2.4 14 15.9 SSE 24 32 13 17 1014.3 1013.4 0.0
02/08:30pm 33.9 28.7 2.7 14 16.1 SSE 19 24 10 13 1013.9 1013.0 0.0
02/08:00pm 34.5 27.7 3.1 14 16.3 SSE 28 39 15 21 1013.6 1012.7 0.0
02/07:30pm 34.9 28.4 2.4 13 16.8 SSE 26 35 14 19 1013.0 1012.1 0.0
02/07:00pm 35.9 30.1 4.2 14 16.9 SSE 24 37 13 20 1012.7 1011.8 0.0
02/06:30pm 36.8 30.5 3.9 13 17.6 SSE 26 33 14 18 1012.4 1011.5 0.0
02/06:00pm 37.6 31.1 4.5 13 17.9 SSE 28 39 15 21 1012.2 1011.3 0.0
02/05:30pm 38.2 32.1 5.0 13 18.2 SSE 26 35 14 19 1011.9 1011.0 0.0
02/05:00pm 39.1 32.4 5.7 13 18.6 SSE 30 37 16 20 1011.6 1010.7 0.0
02/04:30pm 39.8 34.7 6.2 13 18.9 SSE 22 32 12 17 1011.6 1010.7 0.0
02/04:00pm 39.0 34.4 6.7 14 18.2 SSE 20 32 11 17 1011.6 1010.7 0.0
02/03:30pm 39.3 35.4 6.9 14 18.3 SE 17 26 9 14 1011.7 1010.8 0.0
02/03:00pm 39.3 34.0 6.9 14 18.3 SE 24 39 13 21 1011.8 1010.9 0.0
02/02:30pm 38.8 34.4 7.5 15 17.8 SE 20 35 11 19 1012.0 1011.1 0.0
02/02:00pm 38.7 34.5 7.4 15 17.8 E 19 32 10 17 1012.2 1011.3 0.0
02/01:30pm 38.3 34.4 7.1 15 17.6 ESE 17 30 9 16 1012.7 1011.8 0.0
02/01:00pm 38.0 33.9 7.8 16 17.2 SE 19 30 10 16 1013.1 1012.2 0.0
02/12:30pm 36.5 32.3 7.5 17 16.3 SE 19 33 10 18 1013.6 1012.7 0.0
02/12:00pm 36.0 31.7 8.0 18 15.9 SE 20 32 11 17 1014.1 1013.2 0.0
02/11:30am 35.1 30.5 8.0 19 15.3 ESE 22 35 12 19 1014.4 1013.5 0.0
02/11:00am 34.6 29.7 8.4 20 14.8 ESE 24 35 13 19 1014.5 1013.6 0.0
02/10:30am 33.9 29.9 9.2 22 14.1 SE 20 35 11 19 1014.8 1013.9 0.0
02/10:00am 32.9 28.4 8.4 22 13.8 SE 22 30 12 16 1014.9 1014.0 0.0
02/09:30am 31.8 26.8 8.1 23 13.2 SE 24 37 13 20 1015.1 1014.2 0.0
02/09:00am 30.7 25.6 7.8 24 12.6 SE 24 33 13 18 1015.2 1014.3 0.0
02/08:30am 29.8 23.9 7.7 25 12.1 SE 28 37 15 20 1015.2 1014.3 0.0
02/08:00am 29.4 23.5 7.3 25 12.0 SE 28 37 15 20 1015.0 1014.1 0.0
02/07:30am 28.7 22.8 7.3 26 11.6 SSE 28 39 15 21 1014.8 1013.9 0.0
02/07:00am 27.6 21.3 7.5 28 10.8 SSE 30 43 16 23 1014.3 1013.4 0.0
02/06:30am 27.4 22.3 7.8 29 10.6 SSE 24 32 13 17 1014.1 1013.2 0.0
02/06:00am 27.0 21.2 8.0 30 10.3 SSE 28 39 15 21 1013.8 1012.9 0.0
02/05:30am 27.0 22.7 8.0 30 10.3 SSE 20 26 11 14 1013.5 1012.6 0.0
02/05:00am 27.3 21.4 7.7 29 10.6 SSE 28 37 15 20 1012.9 1012.0 0.0
02/04:30am 27.6 22.6 8.0 29 10.6 SSE 24 33 13 18 1012.9 1012.0 0.0
02/04:00am 27.9 22.4 7.7 28 10.9 SSE 26 35 14 19 1012.9 1012.0 0.0
02/03:32am 28.6 22.8 7.8 27 11.3 SSE 28 48 15 26 1012.4 1011.5 0.0
02/03:30am 28.6 23.7 8.3 28 11.1 SSE 24 43 13 23 1012.4 1011.5 0.0
02/03:00am 28.9 24.0 8.6 28 11.2 SSE 24 33 13 18 1012.0 1011.1 0.0
02/02:30am 29.5 22.5 8.5 27 11.6 SSE 35 48 19 26 1011.3 1010.4 0.0
02/02:21am 29.8 24.1 8.2 26 11.9 SSE 28 46 15 25 1011.2 1010.3 0.0
02/02:00am 30.6 25.2 9.5 27 11.9 S 28 41 15 22 1011.0 1010.1 0.0
02/01:30am 31.1 25.6 10.4 28 11.9 S 30 39 16 21 1010.9 1009.9 0.0
02/01:00am 31.7 26.0 11.0 28 12.1 S 32 37 17 20 1010.6 1009.6 0.0
02/12:30am 32.4 27.2 11.6 28 12.3 S 30 44 16 24 1010.5 1009.5 0.0
02/12:13am 32.9 27.3 12.0 28 12.4 SSE 33 52 18 28 1010.3 1009.3 0.0
02/12:00am 33.2 27.6 12.2 28 12.5 SSE 33 50 18 27 1010.2 1009.2 0.0
 
Date/Time
EST
Temp
°C
App
Temp
°C
Dew
Point
°C
Rel
Hum
%
Delta-T
°C
Wind Press
QNH
hPa
Press
MSL
hPa
Rain since
9am
mm
Dir  Spd
km/h
Gust
km/h
Spd
kts
Gust
kts
01/11:30pm 34.4 28.6 12.7 27 13.1 S 35 48 19 26 1009.8 1008.9 0.0
01/11:00pm 35.8 29.6 12.7 25 14.0 S 37 48 20 26 1009.4 1008.5 0.0
01/10:30pm 36.6 30.6 12.1 23 14.8 S 35 48 19 26 1009.0 1008.1 0.0
01/10:00pm 38.3 32.4 10.6 19 16.5 SSW 32 48 17 26 1008.4 1007.5 0.0
01/09:55pm 39.5 35.8 8.1 15 18.1 SSW 17 41 9 22 1008.4 1007.5 0.0
01/09:30pm 40.0 37.1 6.4 13 18.9 SSW 11 19 6 10 1008.1 1007.2 0.0
01/09:00pm 40.3 37.9 5.4 12 19.4 SW 7 9 4 5 1008.2 1007.3 0.0
01/08:30pm 41.2 37.8 6.1 12 19.8 SSW 13 17 7 9 1008.0 1007.1 0.0
01/08:00pm 41.8 38.6 5.3 11 20.4 SSW 11 19 6 10 1007.7 1006.8 0.0
01/07:44pm 42.0 37.8 5.5 11 20.5 W 17 43 9 23 1007.9 1007.0 0.0
01/07:30pm 41.7 39.3 5.3 11 20.3 WSW 7 11 4 6 1007.5 1006.6 0.0
01/07:00pm 42.4 38.6 5.8 11 20.7 SW 15 20 8 11 1007.1 1006.2 0.0
01/06:30pm 42.9 40.0 4.8 10 21.3 WSW 9 17 5 9 1007.1 1006.2 0.0
01/06:00pm 43.4 38.7 5.2 10 21.5 WSW 19 28 10 15 1006.8 1005.9 0.0
01/05:30pm 43.9 37.9 5.5 10 21.7 WSW 26 37 14 20 1006.2 1005.3 0.0
01/05:00pm 44.1 39.0 4.2 9 22.2 WSW 20 33 11 18 1006.1 1005.2 0.0
01/04:30pm 46.0 40.1 3.9 8 23.5 WNW 24 41 13 22 1006.1 1005.2 0.0
01/04:00pm 46.0 40.1 5.6 9 23.2 WNW 26 39 14 21 1006.2 1005.3 0.0
01/03:30pm 45.3 40.4 5.1 9 22.8 NW 20 33 11 18 1006.5 1005.6 0.0
01/03:00pm 45.1 39.0 4.9 9 22.7 NW 26 41 14 22 1006.7 1005.8 0.0
01/02:30pm 45.5 39.9 5.2 9 22.9 NW 24 43 13 23 1007.1 1006.2 0.0
01/02:02pm 46.2 39.9 5.7 9 23.2 NNW 28 54 15 29 1007.4 1006.5 0.0
01/02:00pm 45.9 39.9 5.5 9 23.1 NNW 26 44 14 24 1007.5 1006.6 0.0
01/01:38pm 45.9 39.6 5.5 9 23.1 NNW 28 46 15 25 1007.6 1006.7 0.0
01/01:30pm 45.6 38.8 5.3 9 22.9 NW 30 41 16 22 1007.9 1007.0 0.0
01/01:00pm 45.9 39.6 5.5 9 23.1 NW 28 39 15 21 1008.2 1007.3 0.0

Other formats

Comma delimited format used in spreadsheet applications
http://www.bom.gov.au/fwo/IDQ60801/IDQ60801.95492.axf

JavaScript Object Notation format (JSON) in row-major order
http://www.bom.gov.au/fwo/IDQ60801/IDQ60801.95492.json

Data quality

Most of these data are generated automatically and are frequently updated. Quality checks on data are not normally performed. It is possible for incorrect values to appear. Refer to information at About Latest Weather Observations and please check the disclaimer before using these data.